Relevés horaires Semmerzake (Belgique)


Relevés horaires à Semmerzake - Lundi 19 Juill. 2021
Heure UTC1 Température [°C] Vent [km/h] Hum. [%] Pres.4 [hPa] Visi. [Km] Nébu. [octa] Préc.5 [mm] Cond.
2m. Res. Ros. Dir.2 Vit. Moy. Raf.3
23:00 17.2 17.2 14.6 NNO 1.9 -- 3.7 85 1020.7(0.5/3h) 14 -- -- --
22:00 18.6 18.6 15.1 NNO 1.9 -- 3.7 80 1020.7(0.5/3h) 17 -- -- --
21:00 19.6 19.6 15.0 NNO 1.9 -- 7.4 75 1020.5(0.4/3h) 19 -- -- --
20:00 20.6 20.6 15.0 NNO 1.9 -- 5.6 70 1020.1(-0.1/3h) 20 -- -- --
19:00 22.3 22.3 15.5 NNE 3.7 -- 7.4 65 1020.1(-0.3/3h) 20 -- -- --
18:00 23.5 23.5 16.1 N 3.7 -- 9.3 63 1020(-0.7/3h) 20 -- -- --
17:00 24.2 24.2 15.8 N 3.7 -- 7.4 59 1020.2(-0.9/3h) 19 -- -- --
16:00 24.4 24.4 15.9 NNO 1.9 -- 7.4 59 1020.3(-0.8/3h) 20 -- -- --
15:00 25.5 25.5 15.5 NE 3.7 -- 9.3 54 1020.6(-0.8/3h) 20 -- -- --
14:00 25.5 25.5 16.3 NNO 1.9 -- 9.3 57 1021.1(-0.9/3h) 13 -- -- --
13:00 24.9 24.9 15.6 ENE 3.7 -- 9.3 56 1021.2(-0.9/3h) 18 -- -- --
12:00 24.3 24.3 15.1 NNO 1.9 -- 9.3 56 1021.6(-0.6/3h) 20 -- -- --
11:00 22.8 22.8 15.0 NE 3.7 -- 7.4 61 1022.1(-0.4/3h) 20 -- -- --
10:00 22.8 22.8 15.8 N 3.7 -- 9.3 65 1022.2(-0.2/3h) 19 -- -- --
09:00 21.3 21.3 16.2 NE 3.7 -- 7.4 73 1022.2(0.0/3h) 18 -- -- --
08:00 20.1 20.1 16.2 NNO 3.7 -- 5.6 78 1022.6(0.3/3h) 16 -- -- --
07:00 18.3 18.3 15.8 ENE 3.7 -- 7.4 85 1022.5(0.1/3h) 16 -- -- --
06:00 17.1 17.1 15.7 NNO 1.9 -- 3.7 91 1022.3(-0.1/3h) 13 -- 0.1/12h
NA
05:00 15.6 15.6 15.2 NNO 1.9 -- 3.7 97 1022.3(-0.1/3h) 9 -- -- --
04:00 15.0 15.0 14.7 NNO 1.9 -- 1.9 98 1022.3(-0.2/3h) 5 -- -- Du brouillard ou du brouillard glacé (plus correctement designé sous le nom de brume) est observé et la visibilité n'est ni inférieure à 5/8 de mille ni supérieure à 6 milles
03:00 15.4 15.4 14.9 NNO 1.9 -- 3.7 97 1022.6(0.0/3h) 8 -- -- --
02:00 15.4 15.4 14.7 NNO 1.9 -- 3.7 96 1022.5(-0.4/3h) 6 -- -- --
01:00 15.6 15.6 14.7 NNO 1.9 -- 1.9 94 1022.6(-0.5/3h) 14 -- -- --
00:00 15.9 15.9 14.1 NNO 1.9 -- 11.1 89 1022.6(-0.6/3h) 20 -- -- --

1 Coordinated Universal Time. Actuellement il est 22:00 locale et 20:00 UTC.

2 Le vent souffle depuis la direction indiquée vers la direction oposée.

3 Les rafales max. sont disponible 40 min après l'heure du relevé.

4 Pour les stations d'altitude (plus de 600m) le géopotentiel du niveau le plus proche de la pression obligatoire est indiqué.

5 Les stations disposant d'un diffuseur peuvent indiquer "trace". Cela signifie que des précipitations ont touchés le sol mais que la quantité est inférieure à 0.1 mm.

Récapitulatif de la journée
Température [°C] Vent [km/h] Ensoleillement4 [h] Precipitations totale5 [mm] Pression [Hpa]
Min1 Max.2 Moy.3 Max. Min Max.
14.2 25.6 0 11.1 0 h 0 min 0 1020.0 1022.6

1 Température minimale relevée entre 18:00 UTC la veille et 18:00 UTC le jour donné.

2 Température maximale relevée entre 06:00 UTC le jour donné et 06:00 UTC le lendemain.

3 Vent moyen de la journée basé sur les relevés horaires.

4 Ensoleillement en heures relevé entre 06:00 UTC la veille et 06:00 UTC le jour donné.

5 Précipitations totales tombées entre 06:00 UTC la jour donné et 06:00 UTC le lendemain.

Graphiques horaires